Latest Weather Observations for Toowoomba

IDQ60801

Issued at 5:53 pm EST Sunday 6 September 2026 (issued every 10 minutes, with the page automatically refreshed every 10 minutes)

About weather observations | Map of weather stations | Latest weather observations for QLD | Other Formats
Station Details ID: 041529 Name: TOOWOOMBA AIRPORT Lat: -27.54 Lon: 151.91 Height: 640.9 m
Data from the previous 72 hours. | See also: Recent months at Toowoomba
Date/Time
EST
Temp
°C
App
Temp
°C
Dew
Point
°C
Rel
Hum
%
Delta-T
°C
Wind Press
QNH
hPa
Press
MSL
hPa
Rain since
9am
mm
Dir  Spd
km/h
Gust
km/h
Spd
kts
Gust
kts
06/05:30pm 24.1 17.2 0.4 21 11.3 WSW 26 35 14 19 1019.1 1017.3 0.0
06/05:00pm 25.1 18.6 2.5 23 11.2 SW 26 37 14 20 1018.7 1016.8 0.0
06/04:30pm 26.1 20.1 5.1 26 11.0 SW 26 33 14 18 1018.2 1016.4 0.0
06/04:00pm 26.7 19.7 6.2 27 11.0 WSW 32 44 17 24 1018.0 1016.2 0.0
06/03:42pm 27.0 20.0 5.9 26 11.3 WSW 32 50 17 27 1017.8 1016.0 0.0
06/03:30pm 27.7 21.3 7.0 27 11.3 WSW 30 44 16 24 1017.9 1016.1 0.0
06/03:00pm 27.8 20.9 6.6 26 11.5 WSW 32 46 17 25 1017.8 1016.0 0.0
06/02:38pm 28.2 21.8 6.9 26 11.7 WSW 30 46 16 25 1017.7 1015.9 0.0
06/02:30pm 28.4 22.0 7.1 26 11.7 W 30 41 16 22 1017.7 1015.9 0.0
06/02:19pm 28.0 21.0 6.7 26 11.6 WSW 33 50 18 27 1017.7 1015.9 0.0
06/02:00pm 28.1 21.4 7.4 27 11.4 W 32 44 17 24 1017.7 1015.9 0.0
06/01:30pm 28.2 21.5 7.4 27 11.5 WSW 32 43 17 23 1018.0 1016.2 0.0
06/01:20pm 28.3 22.4 7.5 27 11.5 W 28 46 15 25 1018.0 1016.2 0.0
06/01:00pm 27.7 20.8 6.5 26 11.5 W 32 43 17 23 1018.2 1016.4 0.0
06/12:30pm 28.1 22.2 7.4 27 11.4 W 28 43 15 23 1018.4 1016.6 0.0
06/12:00pm 27.6 22.6 8.0 29 10.9 W 24 37 13 20 1018.9 1017.0 0.0
06/11:30am 27.0 21.5 7.5 29 10.7 W 26 39 14 21 1019.4 1017.6 0.0
06/11:00am 26.1 21.7 9.0 34 9.6 W 22 35 12 19 1019.8 1018.0 0.0
06/10:30am 25.2 21.3 9.5 37 8.8 WNW 20 28 11 15 1020.0 1018.2 0.0
06/10:00am 24.0 19.7 9.2 39 8.2 W 22 35 12 19 1020.5 1018.7 0.0
06/09:30am 23.0 18.9 10.1 44 7.3 WNW 22 30 12 16 1020.7 1018.9 0.0
06/09:00am 21.9 17.4 10.1 47 6.6 WNW 24 30 13 16 1020.9 1019.1 0.0
06/08:30am 21.4 17.5 10.9 51 6.0 WNW 22 28 12 15 1020.7 1018.9 0.0
06/08:00am 21.1 17.6 10.9 52 5.8 NW 20 32 11 17 1020.4 1018.6 0.0
06/07:30am 19.8 17.0 10.0 53 5.4 WNW 15 20 8 11 1020.6 1018.8 0.0
06/07:00am 18.8 15.9 9.8 56 4.9 NW 15 19 8 10 1020.4 1018.6 0.0
06/06:30am 19.0 15.8 9.8 55 5.0 NW 17 20 9 11 1019.9 1018.1 0.0
06/06:00am 18.7 15.4 9.5 55 5.0 NW 17 22 9 12 1019.6 1017.8 0.0
06/05:30am 19.1 16.1 9.3 53 5.3 NNW 15 20 8 11 1019.5 1017.7 0.0
06/05:00am 19.4 16.0 9.0 51 5.6 NNW 17 20 9 11 1019.5 1017.7 0.0
06/04:30am 19.5 16.0 8.8 50 5.8 NW 17 22 9 12 1019.6 1017.8 0.0
06/04:00am 19.9 15.9 8.9 49 6.0 NW 20 28 11 15 1019.6 1017.8 0.0
06/03:30am 20.1 17.7 8.8 48 6.1 NW 11 15 6 8 1018.8 1016.9 0.0
06/03:00am 20.5 18.2 9.1 48 6.2 NW 11 19 6 10 1018.9 1017.0 0.0
06/02:30am 19.8 17.2 9.4 51 5.7 NNW 13 17 7 9 1018.9 1017.0 0.0
06/02:00am 19.4 17.0 9.9 54 5.2 N 13 17 7 9 1019.0 1017.2 0.0
06/01:30am 19.5 17.1 10.2 55 5.2 N 13 17 7 9 1019.2 1017.4 0.0
06/01:00am 18.9 16.5 9.9 56 4.9 N 13 15 7 8 1019.6 1017.8 0.0
06/12:30am 19.3 17.3 10.0 55 5.1 N 11 15 6 8 1019.8 1018.0 0.0
06/12:00am 20.0 17.9 9.9 52 5.6 NNW 11 17 6 9 1019.9 1018.1 0.0
 
Date/Time
EST
Temp
°C
App
Temp
°C
Dew
Point
°C
Rel
Hum
%
Delta-T
°C
Wind Press
QNH
hPa
Press
MSL
hPa
Rain since
9am
mm
Dir  Spd
km/h
Gust
km/h
Spd
kts
Gust
kts
05/11:30pm 20.4 17.0 9.3 49 6.1 N 17 20 9 11 1019.9 1018.1 0.0
05/11:00pm 21.2 18.1 8.8 45 6.7 N 15 22 8 12 1020.3 1018.5 0.0
05/10:30pm 21.8 18.6 8.3 42 7.3 N 15 22 8 12 1020.3 1018.5 0.0
05/10:00pm 22.4 18.7 8.1 40 7.7 NNE 17 24 9 13 1020.3 1018.5 0.0
05/09:30pm 21.9 19.3 7.7 40 7.6 N 11 13 6 7 1020.4 1018.6 0.0
05/09:00pm 22.3 19.1 6.9 37 8.1 NNE 13 15 7 8 1020.4 1018.6 0.0
05/08:30pm 22.6 19.2 6.0 34 8.7 NNE 13 17 7 9 1020.3 1018.5 0.0
05/08:00pm 22.1 19.2 6.7 37 8.1 NE 11 15 6 8 1020.1 1018.3 0.0
05/07:30pm 21.9 19.8 8.1 41 7.5 ENE 9 13 5 7 1020.1 1018.3 0.0
05/07:00pm 22.2 20.1 8.3 41 7.5 E 9 9 5 5 1019.9 1018.1 0.0
05/06:30pm 23.3 21.2 8.2 38 8.2 ESE 9 11 5 6 1019.6 1017.8 0.0
05/06:00pm 24.7 23.2 8.6 36 8.9 E 6 9 3 5 1019.4 1017.6 0.0
05/05:30pm 25.8 24.4 8.8 34 9.5 N 6 7 3 4 1019.2 1017.4 0.0
05/05:00pm 26.9 25.3 8.8 32 10.1 E 7 13 4 7 1019.0 1017.2 0.0
05/04:30pm 27.3 25.3 8.7 31 10.5 ENE 9 15 5 8 1018.9 1017.0 0.0
05/04:00pm 27.7 24.5 7.0 27 11.3 ENE 13 20 7 11 1018.7 1016.8 0.0
05/03:30pm 28.0 24.6 7.8 28 11.2 NE 15 22 8 12 1018.7 1016.8 0.0
05/03:00pm 27.3 24.8 6.7 27 11.2 ENE 9 17 5 9 1018.9 1017.0 0.0
05/02:30pm 27.5 24.8 7.4 28 11.1 ENE 11 17 6 9 1019.1 1017.3 0.0
05/02:00pm 27.9 25.3 6.1 25 11.7 ESE 9 17 5 9 1019.4 1017.6 0.0
05/01:30pm 28.1 24.0 6.2 25 11.8 ENE 17 24 9 13 1019.7 1017.9 0.0
05/01:00pm 27.7 24.5 7.0 27 11.3 ENE 13 19 7 10 1020.4 1018.6 0.0
05/12:30pm 26.9 23.6 6.3 27 11.1 ENE 13 17 7 9 1021.1 1019.3 0.0
05/12:00pm 26.2 22.9 6.3 28 10.6 ENE 13 17 7 9 1021.7 1020.0 0.0
05/11:30am 25.7 23.1 9.5 36 9.2 E 13 17 7 9 1022.4 1020.6 0.0
05/11:00am 24.3 21.5 11.3 44 7.5 ENE 17 20 9 11 1022.9 1021.1 0.0
05/10:30am 24.0 22.0 12.6 49 6.7 E 15 20 8 11 1023.3 1021.6 0.0
05/10:00am 23.7 22.0 12.4 49 6.6 E 13 19 7 10 1023.8 1022.0 0.0
05/09:30am 23.2 21.0 9.2 41 7.8 SE 11 13 6 7 1023.9 1022.1 0.0
05/09:00am 21.9 19.3 9.4 45 6.9 E 13 17 7 9 1024.0 1022.2 0.0
05/08:30am 21.7 19.0 7.2 39 7.7 NE 11 15 6 8 1024.1 1022.3 0.0
05/08:00am 20.9 17.7 5.3 36 7.9 E 11 13 6 7 1024.0 1022.2 0.0
05/07:30am 19.4 16.2 5.1 39 7.2 E 11 13 6 7 1023.8 1022.0 0.0
05/07:00am 17.2 14.5 5.8 47 5.7 ESE 9 11 5 6 1023.7 1021.9 0.0
05/06:30am 15.3 12.1 5.2 51 5.0 ESE 11 13 6 7 1023.4 1021.7 0.0
05/06:00am 15.9 13.0 4.6 47 5.5 E 9 11 5 6 1023.3 1021.6 0.0
05/05:30am 15.3 12.9 4.4 48 5.3 SSE 6 7 3 4 1023.0 1021.3 0.0
05/05:00am 16.8 13.8 4.2 43 6.1 SSW 9 11 5 6 1022.8 1021.0 0.0
05/04:30am 16.7 13.7 4.1 43 6.1 SW 9 11 5 6 1022.8 1021.0 0.0
05/04:00am 17.0 13.7 4.3 43 6.2 SSW 11 13 6 7 1022.7 1020.9 0.0
05/03:30am 17.1 13.7 4.1 42 6.3 SW 11 13 6 7 1022.8 1021.0 0.0
05/03:00am 17.0 13.7 4.3 43 6.2 SSW 11 13 6 7 1022.9 1021.1 0.0
05/02:30am 16.9 13.6 4.3 43 6.1 SSW 11 13 6 7 1022.9 1021.1 0.0
05/02:00am 17.6 13.9 4.6 42 6.4 SSW 13 17 7 9 1023.1 1021.4 0.0
05/01:30am 17.9 14.2 4.5 41 6.6 SSW 13 17 7 9 1023.2 1021.5 0.0
05/01:00am 17.2 13.9 4.5 43 6.2 SSW 11 13 6 7 1023.3 1021.6 0.0
05/12:30am 17.8 14.8 4.0 40 6.7 SSW 9 13 5 7 1023.4 1021.7 0.0
05/12:00am 17.6 14.6 4.2 41 6.5 SW 9 11 5 6 1023.4 1021.7 0.0
 
Date/Time
EST
Temp
°C
App
Temp
°C
Dew
Point
°C
Rel
Hum
%
Delta-T
°C
Wind Press
QNH
hPa
Press
MSL
hPa
Rain since
9am
mm
Dir  Spd
km/h
Gust
km/h
Spd
kts
Gust
kts
04/11:30pm 17.8 14.1 4.4 41 6.6 SW 13 17 7 9 1023.3 1021.6 0.0
04/11:00pm 18.0 14.4 4.9 42 6.5 SW 13 17 7 9 1023.4 1021.7 0.0
04/10:30pm 18.7 15.1 4.8 40 6.9 SW 13 17 7 9 1023.8 1022.0 0.0
04/10:00pm 19.3 16.2 5.4 40 7.0 SW 11 20 6 11 1023.8 1022.0 0.0
04/09:30pm 19.1 15.5 4.8 39 7.1 SW 13 17 7 9 1023.9 1022.1 0.0
04/09:00pm 19.4 15.8 5.1 39 7.2 SW 13 17 7 9 1023.6 1021.8 0.0
04/08:30pm 19.4 15.8 5.1 39 7.2 WSW 13 17 7 9 1023.2 1021.5 0.0
04/08:00pm 20.2 17.0 5.1 37 7.6 WSW 11 15 6 8 1023.0 1021.3 0.0
04/07:30pm 20.9 16.9 4.9 35 8.1 WSW 15 19 8 10 1022.8 1021.0 0.0
04/07:00pm 20.8 17.2 4.8 35 8.1 WSW 13 15 7 8 1022.6 1020.8 0.0
04/06:30pm 22.0 17.6 5.0 33 8.7 WSW 17 19 9 10 1022.3 1020.5 0.0
04/06:00pm 23.5 18.2 4.9 30 9.5 WSW 22 32 12 17 1022.0 1020.2 0.0
04/05:30pm 24.0 19.4 5.4 30 9.7 WSW 19 28 10 15 1021.7 1020.0 0.0
04/05:00pm 25.1 19.5 5.3 28 10.3 SW 24 35 13 19 1021.5 1019.7 0.0
04/04:30pm 25.7 19.3 5.3 27 10.7 SW 28 41 15 22 1021.4 1019.6 0.0
04/04:00pm 26.4 20.9 4.2 24 11.5 WSW 22 32 12 17 1021.4 1019.6 0.0
04/03:30pm 26.3 19.4 2.3 21 12.0 WSW 28 37 15 20 1021.2 1019.4 0.0
04/03:00pm 27.4 20.8 1.8 19 12.7 W 26 35 14 19 1021.2 1019.4 0.0
04/02:30pm 26.9 20.3 2.1 20 12.4 WSW 26 43 14 23 1021.3 1019.5 0.0
04/02:00pm 26.5 21.6 4.9 25 11.3 W 20 32 11 17 1021.5 1019.7 0.0
04/01:30pm 25.8 20.0 4.3 25 11.1 W 24 33 13 18 1022.0 1020.2 0.0
04/01:00pm 25.4 20.8 6.6 30 10.1 WNW 20 33 11 18 1022.5 1020.7 0.0
04/12:30pm 24.9 19.4 5.7 29 10.1 W 24 33 13 18 1022.9 1021.1 0.0
04/12:00pm 25.2 20.6 6.4 30 10.0 WNW 20 30 11 16 1023.0 1021.3 0.0
04/11:30am 24.7 20.4 6.9 32 9.6 WSW 19 28 10 15 1023.6 1021.8 0.0
04/11:00am 23.6 19.6 8.1 37 8.4 WSW 19 30 10 16 1024.2 1022.4 0.0
04/10:30am 23.4 19.2 7.5 36 8.6 W 19 26 10 14 1024.5 1022.8 0.0
04/10:00am 22.4 19.4 7.8 39 7.8 W 13 20 7 11 1024.7 1023.0 0.0
04/09:30am 21.6 19.4 7.8 41 7.4 SW 9 15 5 8 1025.0 1023.3 0.0
04/09:00am 21.0 19.0 8.6 45 6.7 NW 9 13 5 7 1025.1 1023.4 0.0
04/08:30am 19.9 17.8 8.3 47 6.2 NW 9 13 5 7 1025.1 1023.4 0.0
04/08:00am 18.5 16.2 7.6 49 5.7 NNW 9 13 5 7 1025.0 1023.3 0.0
04/07:30am 17.4 14.6 6.9 50 5.4 NNW 11 13 6 7 1024.6 1022.9 0.0
04/07:00am 16.5 13.8 7.2 54 4.8 NNW 11 13 6 7 1024.0 1022.2 0.0
04/06:30am 15.3 12.4 6.6 56 4.4 NNW 11 11 6 6 1023.7 1021.9 0.0
04/06:00am 14.9 12.7 6.2 56 4.3 NW 7 9 4 5 1023.2 1021.5 0.0
04/05:30am 15.3 12.8 6.6 56 4.4 NNW 9 11 5 6 1022.9 1021.1 0.0
04/05:00am 15.5 12.5 6.0 53 4.7 NNW 11 13 6 7 1022.6 1020.8 0.0
04/04:30am 15.5 12.9 6.0 53 4.7 NNW 9 13 5 7 1022.3 1020.5 0.0
04/04:00am 15.8 12.8 6.0 52 4.9 NNW 11 13 6 7 1022.1 1020.3 0.0
04/03:30am 15.5 12.8 5.7 52 4.9 NNW 9 13 5 7 1021.9 1020.1 0.0
04/03:00am 15.3 12.6 5.5 52 4.8 NNW 9 13 5 7 1021.7 1020.0 0.0
04/02:30am 16.0 13.2 5.3 49 5.3 NNW 9 15 5 8 1021.9 1020.1 0.0
04/02:00am 15.9 12.7 5.2 49 5.2 NNW 11 15 6 8 1022.0 1020.2 0.0
04/01:30am 16.4 12.9 5.4 48 5.5 NNW 13 15 7 8 1022.0 1020.2 0.0
04/01:00am 16.7 13.5 5.0 46 5.7 NW 11 15 6 8 1022.1 1020.3 0.0
04/12:30am 17.6 14.4 5.2 44 6.2 WNW 11 15 6 8 1022.0 1020.2 0.0
04/12:00am 18.1 15.3 5.0 42 6.5 NW 9 13 5 7 1022.2 1020.4 0.0
 
Date/Time
EST
Temp
°C
App
Temp
°C
Dew
Point
°C
Rel
Hum
%
Delta-T
°C
Wind Press
QNH
hPa
Press
MSL
hPa
Rain since
9am
mm
Dir  Spd
km/h
Gust
km/h
Spd
kts
Gust
kts
03/11:30pm 18.6 15.4 5.1 41 6.8 WNW 11 13 6 7 1022.2 1020.4 0.0
03/11:00pm 19.1 16.3 5.2 40 7.0 W 9 13 5 7 1022.3 1020.5 0.0
03/10:30pm 18.9 15.4 5.4 41 6.8 WNW 13 15 7 8 1022.5 1020.7 0.0
03/10:00pm 18.9 16.5 5.4 41 6.8 W 7 9 4 5 1022.6 1020.8 0.0
03/09:30pm 18.9 16.1 5.0 40 7.0 WNW 9 11 5 6 1022.4 1020.6 0.0
03/09:00pm 20.4 16.8 5.2 37 7.7 WNW 13 15 7 8 1022.0 1020.2 0.0
03/08:30pm 21.4 17.9 5.3 35 8.2 WNW 13 17 7 9 1021.9 1020.1 0.0
03/08:00pm 21.8 18.3 5.3 34 8.4 WNW 13 17 7 9 1021.5 1019.7 0.0
03/07:30pm 22.1 18.5 5.1 33 8.7 WNW 13 15 7 8 1021.3 1019.5 0.0
03/07:00pm 22.5 18.9 5.0 32 8.9 WNW 13 17 7 9 1021.0 1019.2 0.0
03/06:30pm 23.2 19.3 5.2 31 9.3 WNW 15 19 8 10 1020.7 1018.9 0.0
03/06:00pm 24.0 20.4 4.9 29 9.8 WNW 13 17 7 9 1020.6 1018.8 0.0

Other formats

Comma delimited format used in spreadsheet applications
http://www.bom.gov.au/fwo/IDQ60801/IDQ60801.95551.axf

JavaScript Object Notation format (JSON) in row-major order
http://www.bom.gov.au/fwo/IDQ60801/IDQ60801.95551.json

Data quality

Most of these data are generated automatically and are frequently updated. Quality checks on data are not normally performed. It is possible for incorrect values to appear. Refer to information at About Latest Weather Observations and please check the disclaimer before using these data.